Time;durP1;ratioP1;P1;durP2;ratioP2;P2;SDS_P1;SDS_P2;PMS_P1;PMS_P2;Temp;Humidity;BMP_temperature;BMP_pressure;BME280_temperature;BME280_humidity;BME280_pressure;Samples;Min_cycle;Max_cycle;Signal;HPM_P1;HPM_P2
2021/12/01 00:00:52;;;;;;;5.43;4.80;;;;;;;3.61;55.40;99254.50;5070644;28;20198;-56
2021/12/01 00:03:19;;;;;;;5.37;4.63;;;;;;;3.70;55.44;99259.97;5070654;28;20196;-55
2021/12/01 00:05:46;;;;;;;4.37;3.97;;;;;;;3.74;55.16;99254.16;5070477;28;20222;-55
2021/12/01 00:08:13;;;;;;;7.90;4.90;;;;;;;3.72;55.04;99242.22;5070453;28;20188;-56
2021/12/01 00:10:40;;;;;;;5.57;4.83;;;;;;;3.72;55.65;99247.31;5070490;28;20598;-56
2021/12/01 00:13:09;;;;;;;4.57;4.17;;;;;;;3.82;55.35;99242.63;5070314;28;20191;-57
2021/12/01 00:15:38;;;;;;;5.13;4.63;;;;;;;3.80;56.22;99244.25;5070924;28;20188;-57
2021/12/01 00:18:05;;;;;;;5.30;4.70;;;;;;;3.79;55.57;99241.66;5070565;28;20200;-57
2021/12/01 00:20:32;;;;;;;5.77;5.07;;;;;;;3.88;55.17;99244.53;5069733;28;20230;-57
2021/12/01 00:22:59;;;;;;;7.80;5.40;;;;;;;3.81;55.95;99240.91;5070398;28;20196;-57
2021/12/01 00:25:27;;;;;;;6.30;5.07;;;;;;;3.62;55.95;99204.59;5070354;28;20203;-57
2021/12/01 00:27:56;;;;;;;6.33;5.17;;;;;;;3.79;55.35;99247.59;5070308;28;20187;-57
2021/12/01 00:30:25;;;;;;;6.23;5.33;;;;;;;3.77;55.12;99254.28;5070472;28;20191;-55
2021/12/01 00:32:55;;;;;;;4.17;3.77;;;;;;;3.81;55.01;99253.63;5070376;28;20274;-55
2021/12/01 00:35:23;;;;;;;4.37;3.83;;;;;;;3.82;55.04;99245.16;5070343;28;20191;-55
2021/12/01 00:37:50;;;;;;;4.50;4.10;;;;;;;3.84;55.07;99253.75;5070299;28;20195;-55
2021/12/01 00:40:17;;;;;;;5.67;4.93;;;;;;;3.66;54.95;99217.44;5070496;28;20199;-55
2021/12/01 00:42:45;;;;;;;4.80;4.30;;;;;;;3.82;55.23;99252.78;5070348;28;20192;-55
2021/12/01 00:45:16;;;;;;;5.23;4.33;;;;;;;3.84;55.05;99245.25;5070192;28;20219;-55
2021/12/01 00:47:44;;;;;;;6.47;5.07;;;;;;;3.83;54.90;99238.41;5070195;28;20235;-55
2021/12/01 00:50:15;;;;;;;4.73;4.27;;;;;;;3.82;55.03;99239.25;5070123;28;20199;-55
2021/12/01 00:52:41;;;;;;;4.60;4.20;;;;;;;3.84;55.36;99230.88;5069854;28;20203;-55
2021/12/01 00:55:09;;;;;;;4.87;4.07;;;;;;;3.88;54.71;99229.28;5069858;28;20203;-55
2021/12/01 00:57:37;;;;;;;6.33;5.40;;;;;;;3.93;54.17;99233.75;5069957;28;20257;-55
2021/12/01 01:00:05;;;;;;;5.00;4.40;;;;;;;3.92;53.98;99236.25;5069913;28;21070;-55
2021/12/01 01:02:32;;;;;;;5.30;4.33;;;;;;;3.97;54.26;99239.81;5069933;28;20201;-55
2021/12/01 01:04:59;;;;;;;5.73;4.63;;;;;;;4.00;53.42;99232.31;5069775;28;20219;-55
2021/12/01 01:07:28;;;;;;;5.63;4.40;;;;;;;3.98;53.98;99232.25;5069868;28;20196;-55
2021/12/01 01:09:58;;;;;;;5.63;4.87;;;;;;;3.96;54.43;99223.69;5069680;28;20293;-55
2021/12/01 01:18:05;;;;;;;10.07;5.20;;;;;;;4.07;54.78;99231.72;5052649;28;20612;-54
2021/12/01 01:20:33;;;;;;;8.93;4.67;;;;;;;4.04;54.92;99226.50;5069522;28;20281;-54
2021/12/01 01:23:02;;;;;;;5.80;5.00;;;;;;;3.87;55.49;99207.25;5069672;28;20195;-54
2021/12/01 01:25:29;;;;;;;8.27;5.57;;;;;;;3.87;56.15;99210.66;5069729;28;20215;-54
2021/12/01 01:27:56;;;;;;;6.10;5.37;;;;;;;3.91;55.46;99204.88;5069681;28;20196;-55
2021/12/01 01:30:23;;;;;;;6.23;5.00;;;;;;;3.81;55.76;99194.31;5069863;28;20203;-54
2021/12/01 01:32:50;;;;;;;7.20;5.60;;;;;;;3.65;56.55;99181.84;5070678;28;20195;-55
2021/12/01 01:35:18;;;;;;;6.83;5.47;;;;;;;3.75;57.14;99183.91;5069142;28;20200;-54
2021/12/01 01:37:45;;;;;;;6.30;5.30;;;;;;;3.65;57.01;99175.09;5053358;28;20188;-54
2021/12/01 01:40:16;;;;;;;6.17;5.47;;;;;;;3.54;56.90;99161.97;5053173;28;20200;-55
2021/12/01 01:42:43;;;;;;;6.60;5.90;;;;;;;3.44;57.39;99149.72;5053526;28;20196;-54
2021/12/01 01:45:10;;;;;;;7.67;6.07;;;;;;;3.44;58.09;99152.25;5052882;28;20219;-55
2021/12/01 01:47:47;;;;;;;10.07;6.30;;;;;;;3.36;58.44;99157.84;5053310;28;20211;-55
2021/12/01 01:50:25;;;;;;;7.40;6.07;;;;;;;3.32;58.22;99158.56;5052969;28;20306;-55
2021/12/01 01:52:52;;;;;;;6.20;5.60;;;;;;;3.25;58.59;99157.44;5052991;28;20544;-55
2021/12/01 01:55:20;;;;;;;7.67;6.17;;;;;;;3.28;57.49;99151.63;5052950;28;20699;-55
2021/12/01 01:57:47;;;;;;;7.80;6.53;;;;;;;3.29;57.99;99161.84;5052955;28;20552;-55
2021/12/01 02:00:14;;;;;;;6.93;5.70;;;;;;;3.26;58.31;99150.69;5053069;28;20227;-55
2021/12/01 02:02:42;;;;;;;9.13;5.73;;;;;;;3.25;58.50;99139.66;5052953;28;20226;-55
2021/12/01 02:05:09;;;;;;;7.83;6.13;;;;;;;3.33;58.43;99152.66;5052783;28;20224;-55
2021/12/01 02:07:36;;;;;;;9.87;6.37;;;;;;;3.36;58.88;99147.69;5053241;28;20273;-55
2021/12/01 02:10:03;;;;;;;9.50;6.77;;;;;;;3.26;57.93;99149.03;5053080;28;20200;-55
2021/12/01 02:12:32;;;;;;;8.63;6.33;;;;;;;3.22;58.53;99142.09;5053080;28;20196;-55
2021/12/01 02:14:59;;;;;;;7.27;6.37;;;;;;;3.16;58.53;99146.06;5053182;28;20181;-55
2021/12/01 02:17:25;;;;;;;8.17;6.43;;;;;;;3.15;58.39;99157.88;5052735;28;20192;-55
2021/12/01 02:19:55;;;;;;;10.38;7.75;;;;;;;3.22;58.03;99161.50;5051667;28;20458;-55
2021/12/01 02:22:24;;;;;;;10.33;7.00;;;;;;;3.18;58.21;99173.25;5052236;28;20245;-56
2021/12/01 02:24:51;;;;;;;9.53;7.00;;;;;;;3.06;58.84;99174.41;5052647;28;20204;-55
2021/12/01 02:27:18;;;;;;;8.07;6.73;;;;;;;3.07;59.20;99183.75;5052437;28;20203;-55
2021/12/01 02:29:45;;;;;;;7.30;5.83;;;;;;;3.06;58.94;99185.44;5052468;28;20195;-55
2021/12/01 02:32:12;;;;;;;7.70;6.30;;;;;;;2.93;59.31;99178.13;5052196;28;20192;-55
2021/12/01 02:34:41;;;;;;;8.40;6.37;;;;;;;2.87;59.93;99178.75;5052175;28;20254;-55
2021/12/01 02:37:08;;;;;;;7.97;6.63;;;;;;;2.87;60.17;99175.34;5052426;28;20215;-56
2021/12/01 02:39:38;;;;;;;7.40;5.83;;;;;;;2.80;59.59;99164.06;5052331;28;20250;-55
2021/12/01 02:42:07;;;;;;;10.87;6.30;;;;;;;2.78;59.32;99159.72;5051996;28;20242;-55
2021/12/01 02:44:35;;;;;;;8.50;6.53;;;;;;;2.80;59.40;99160.69;5051687;28;20196;-55
2021/12/01 02:47:04;;;;;;;6.40;5.53;;;;;;;2.82;59.26;99159.94;5062659;28;20204;-59
2021/12/01 02:49:31;;;;;;;9.70;6.77;;;;;;;2.86;60.03;99171.06;5052054;28;20227;-59
2021/12/01 02:51:58;;;;;;;8.20;6.30;;;;;;;2.89;60.36;99169.53;5052016;28;20203;-59
2021/12/01 02:54:26;;;;;;;9.67;6.77;;;;;;;2.92;60.24;99173.84;5051782;28;20192;-58
2021/12/01 02:56:56;;;;;;;7.67;6.50;;;;;;;2.87;60.41;99177.88;5051614;28;20200;-59
2021/12/01 02:59:24;;;;;;;9.30;6.77;;;;;;;2.89;60.24;99166.09;5051716;28;20185;-59
2021/12/01 03:01:52;;;;;;;6.73;5.63;;;;;;;2.88;59.42;99165.22;5052061;28;20981;-58
2021/12/01 03:04:20;;;;;;;6.47;5.80;;;;;;;2.96;58.92;99163.91;5052185;28;20254;-59
2021/12/01 03:06:50;;;;;;;6.10;5.10;;;;;;;3.04;57.91;99168.41;5052056;28;20253;-58
2021/12/01 03:09:17;;;;;;;6.77;4.80;;;;;;;3.12;56.84;99165.38;5051795;28;20199;-58
2021/12/01 03:11:44;;;;;;;5.93;5.27;;;;;;;3.18;56.59;99169.84;5051528;28;20203;-58
2021/12/01 03:14:16;;;;;;;6.57;5.33;;;;;;;3.28;56.37;99166.84;5051499;28;20638;-58
2021/12/01 03:16:44;;;;;;;7.73;5.73;;;;;;;3.37;55.15;99173.16;5051346;28;20188;-59
2021/12/01 03:19:11;;;;;;;4.73;4.03;;;;;;;3.48;54.24;99164.28;5051399;28;20228;-58
2021/12/01 03:21:38;;;;;;;5.80;4.50;;;;;;;3.58;54.17;99142.63;5051359;28;20200;-58
2021/12/01 03:24:06;;;;;;;5.47;4.23;;;;;;;3.73;53.31;99145.75;5051521;28;20187;-58
2021/12/01 03:26:34;;;;;;;5.43;4.40;;;;;;;3.86;52.40;99154.69;5051271;28;20690;-59
2021/12/01 03:29:01;;;;;;;5.17;4.20;;;;;;;3.94;51.19;99144.00;5051340;28;20216;-58
2021/12/01 03:31:29;;;;;;;7.63;3.83;;;;;;;4.15;50.04;99138.81;5051077;28;20196;-58
2021/12/01 03:33:56;;;;;;;4.53;3.63;;;;;;;4.22;50.38;99152.63;5051137;28;20242;-58
2021/12/01 03:36:23;;;;;;;3.47;3.17;;;;;;;4.25;49.64;99168.84;5050825;28;20189;-59
2021/12/01 03:38:50;;;;;;;3.40;3.10;;;;;;;4.36;49.81;99164.13;5051080;28;20250;-58
2021/12/01 03:41:17;;;;;;;3.90;3.30;;;;;;;4.49;49.37;99168.84;5050998;28;20188;-58
2021/12/01 03:43:44;;;;;;;6.33;4.43;;;;;;;4.58;49.79;99169.16;5051459;28;20193;-58
2021/12/01 03:46:11;;;;;;;4.63;4.00;;;;;;;4.58;49.22;99162.41;5051099;28;20587;-59
2021/12/01 03:48:39;;;;;;;5.00;4.23;;;;;;;4.61;49.58;99167.59;5051063;28;20314;-59
2021/12/01 03:51:06;;;;;;;4.67;4.27;;;;;;;4.69;49.13;99163.63;5050596;28;20196;-59
2021/12/01 03:53:33;;;;;;;5.30;4.40;;;;;;;4.72;50.19;99173.88;5050833;28;20196;-59
2021/12/01 03:56:00;;;;;;;5.83;4.83;;;;;;;4.75;50.54;99175.69;5049932;28;20651;-59
2021/12/01 03:58:26;;;;;;;4.83;4.33;;;;;;;4.73;50.11;99170.53;5050786;28;20278;-60
2021/12/01 04:00:54;;;;;;;7.47;4.63;;;;;;;4.63;50.59;99152.38;5052695;28;20192;-59
2021/12/01 04:03:21;;;;;;;4.60;4.20;;;;;;;4.74;50.00;99174.81;5067941;28;20192;-61
2021/12/01 04:05:49;;;;;;;8.00;4.73;;;;;;;4.78;49.76;99181.72;5062075;28;20220;-59
2021/12/01 04:08:16;;;;;;;6.47;4.80;;;;;;;4.68;50.96;99189.88;5071162;28;20196;-59
2021/12/01 04:10:43;;;;;;;6.27;5.50;;;;;;;4.61;51.17;99187.09;5071282;28;20666;-59
2021/12/01 04:13:10;;;;;;;8.70;5.40;;;;;;;4.61;51.43;99176.91;5071242;28;20188;-59
2021/12/01 04:15:37;;;;;;;7.33;5.33;;;;;;;4.63;51.82;99193.94;5071000;28;20188;-59
2021/12/01 04:18:04;;;;;;;6.37;5.03;;;;;;;4.62;51.47;99189.66;5070689;28;20199;-59
2021/12/01 04:20:31;;;;;;;6.27;5.67;;;;;;;4.49;52.11;99190.06;5070179;28;20788;-60
2021/12/01 04:22:59;;;;;;;7.75;5.18;;;;;;;4.39;52.47;99192.22;5070354;28;20485;-59
2021/12/01 04:25:26;;;;;;;6.27;5.43;;;;;;;4.37;52.37;99187.06;5070634;28;20713;-59
2021/12/01 04:27:53;;;;;;;5.70;5.10;;;;;;;4.36;52.80;99190.44;5070713;28;20241;-58
2021/12/01 04:30:22;;;;;;;6.40;4.77;;;;;;;4.24;53.24;99172.19;5070272;28;20195;-60
2021/12/01 04:32:50;;;;;;;6.17;5.37;;;;;;;4.35;53.11;99193.78;5070371;28;20187;-59
2021/12/01 04:35:18;;;;;;;8.77;5.53;;;;;;;4.27;53.63;99190.09;5064034;28;20199;-60
2021/12/01 04:37:45;;;;;;;5.23;4.73;;;;;;;4.25;53.57;99191.75;5054541;28;20204;-61
2021/12/01 04:40:14;;;;;;;7.40;5.90;;;;;;;4.29;54.34;99187.59;5050564;28;20186;-60
2021/12/01 04:42:41;;;;;;;9.13;6.78;;;;;;;4.35;53.98;99182.75;5049644;28;20439;-59
2021/12/01 04:45:14;;;;;;;8.67;5.77;;;;;;;4.42;53.80;99172.00;5050479;28;20220;-61
2021/12/01 04:47:43;;;;;;;6.30;4.73;;;;;;;4.43;53.32;99173.69;5050319;28;20199;-60
2021/12/01 04:50:12;;;;;;;7.63;5.43;;;;;;;4.39;53.68;99172.75;5050225;28;20200;-59
2021/12/01 04:52:39;;;;;;;9.50;5.93;;;;;;;4.42;53.30;99162.66;5050071;28;20204;-59
2021/12/01 04:55:08;;;;;;;7.97;5.20;;;;;;;4.39;54.33;99164.25;5049868;28;20635;-60
2021/12/01 04:57:39;;;;;;;7.50;5.17;;;;;;;4.39;54.80;99170.22;5049699;28;20202;-60
2021/12/01 05:00:08;;;;;;;7.30;5.10;;;;;;;4.36;54.65;99177.72;5049820;28;20758;-60
2021/12/01 05:02:35;;;;;;;6.60;4.63;;;;;;;4.35;53.87;99170.91;5050144;28;20196;-59
2021/12/01 05:05:02;;;;;;;6.73;4.90;;;;;;;4.37;53.88;99183.69;5050114;28;20296;-61
2021/12/01 05:07:28;;;;;;;8.17;5.83;;;;;;;4.36;55.21;99169.22;5051789;28;20224;-61
2021/12/01 05:09:56;;;;;;;7.80;5.23;;;;;;;4.32;54.91;99175.88;5053955;28;20192;-59
2021/12/01 05:12:23;;;;;;;8.10;5.33;;;;;;;4.30;54.74;99186.81;5053716;28;20218;-60
2021/12/01 05:14:51;;;;;;;6.40;5.10;;;;;;;4.27;54.57;99161.25;5053675;28;20205;-60
2021/12/01 05:17:20;;;;;;;6.97;4.67;;;;;;;4.31;54.92;99181.78;5053629;28;20192;-60
2021/12/01 05:19:46;;;;;;;7.23;5.70;;;;;;;4.27;55.18;99191.78;5053615;28;20339;-59
2021/12/01 05:22:13;;;;;;;9.07;6.30;;;;;;;4.18;54.39;99183.00;5059730;28;21031;-60
2021/12/01 05:24:40;;;;;;;7.10;5.57;;;;;;;4.17;55.37;99198.22;5053993;28;20191;-60
2021/12/01 05:27:07;;;;;;;8.97;6.70;;;;;;;4.16;55.02;99171.94;5053884;28;20282;-60
2021/12/01 05:29:34;;;;;;;8.57;6.77;;;;;;;4.28;55.09;99191.84;5062150;28;20729;-57
2021/12/01 05:32:02;;;;;;;8.87;6.23;;;;;;;4.27;55.16;99194.31;5060849;28;20202;-57
2021/12/01 05:34:29;;;;;;;8.43;6.40;;;;;;;4.24;54.73;99195.06;5072885;28;20199;-56
2021/12/01 05:36:59;;;;;;;6.93;5.83;;;;;;;4.14;54.93;99193.91;5053578;28;20254;-57
2021/12/01 05:39:27;;;;;;;7.83;6.40;;;;;;;3.97;55.14;99173.75;5053542;28;20188;-56
2021/12/01 05:41:54;;;;;;;6.43;5.43;;;;;;;3.99;55.28;99180.59;5052893;28;20188;-56
2021/12/01 05:44:20;;;;;;;7.53;6.67;;;;;;;4.00;56.07;99187.44;5052921;28;20192;-57
2021/12/01 05:46:47;;;;;;;9.60;6.57;;;;;;;3.94;56.73;99187.22;5053247;28;20256;-56
2021/12/01 05:49:15;;;;;;;7.03;5.93;;;;;;;3.93;55.93;99187.13;5052845;28;20250;-56
2021/12/01 05:51:43;;;;;;;7.37;6.40;;;;;;;3.91;56.11;99189.63;5053149;28;20192;-56
2021/12/01 05:54:10;;;;;;;6.87;5.63;;;;;;;3.87;56.22;99202.19;5052913;28;20231;-56
2021/12/01 05:56:37;;;;;;;8.80;7.53;;;;;;;3.85;56.78;99201.22;5052557;28;20439;-55
2021/12/01 05:59:04;;;;;;;8.23;6.93;;;;;;;3.91;56.21;99209.97;5052674;28;20658;-54
2021/12/01 06:01:31;;;;;;;9.80;7.57;;;;;;;3.91;56.37;99214.16;5052808;28;20192;-55
2021/12/01 06:03:58;;;;;;;7.50;6.30;;;;;;;3.99;55.82;99213.66;5052324;28;20185;-55
2021/12/01 06:06:26;;;;;;;14.03;6.70;;;;;;;4.07;56.00;99214.78;5065122;28;20211;-55
2021/12/01 06:08:53;;;;;;;9.03;6.00;;;;;;;4.16;55.64;99210.06;5061400;28;20729;-56
2021/12/01 06:11:21;;;;;;;7.40;6.57;;;;;;;4.32;55.04;99218.22;5058859;28;20196;-56
2021/12/01 06:13:50;;;;;;;10.20;6.97;;;;;;;4.43;54.14;99215.28;5072504;28;20206;-56
2021/12/01 06:16:20;;;;;;;6.43;4.70;;;;;;;4.58;53.63;99220.91;5072268;28;20191;-56
2021/12/01 06:18:46;;;;;;;6.77;5.27;;;;;;;4.66;53.43;99218.63;5071838;28;20235;-55
2021/12/01 06:21:13;;;;;;;9.43;6.10;;;;;;;4.81;53.03;99225.94;5072143;28;20198;-56
2021/12/01 06:23:41;;;;;;;14.27;6.30;;;;;;;4.91;53.18;99220.34;5067989;28;20659;-55
2021/12/01 06:26:08;;;;;;;5.20;4.70;;;;;;;5.09;52.01;99232.00;5051918;28;20219;-56
2021/12/01 06:28:35;;;;;;;6.10;5.37;;;;;;;5.17;51.38;99229.69;5051895;28;20690;-56
2021/12/01 06:31:02;;;;;;;6.37;5.63;;;;;;;5.28;50.48;99230.91;5052565;28;20193;-56
2021/12/01 06:33:29;;;;;;;9.37;5.90;;;;;;;5.44;50.00;99232.28;5051843;28;20194;-56
2021/12/01 06:35:55;;;;;;;8.27;4.53;;;;;;;5.71;48.83;99230.63;5052263;28;20251;-56
2021/12/01 06:38:22;;;;;;;10.53;5.37;;;;;;;5.90;48.17;99225.28;5052090;28;20176;-55
2021/12/01 06:40:50;;;;;;;7.13;4.70;;;;;;;6.04;47.58;99225.69;5052047;28;20250;-56
2021/12/01 06:43:17;;;;;;;6.60;4.17;;;;;;;6.19;47.30;99237.22;5051028;28;20197;-56
2021/12/01 06:45:44;;;;;;;4.60;4.10;;;;;;;6.23;46.60;99246.69;5051451;28;20196;-56
2021/12/01 06:48:11;;;;;;;7.53;5.30;;;;;;;6.24;46.45;99235.66;5050892;28;20455;-56
2021/12/01 06:50:38;;;;;;;4.90;3.83;;;;;;;6.42;45.98;99256.59;5051544;28;20188;-55
2021/12/01 06:53:05;;;;;;;4.83;4.33;;;;;;;6.54;45.48;99259.50;5051589;28;20528;-56
2021/12/01 06:55:33;;;;;;;4.43;3.87;;;;;;;6.78;44.74;99259.31;5051263;28;20645;-56
2021/12/01 06:58:01;;;;;;;4.60;3.23;;;;;;;6.98;44.33;99255.59;5064582;28;20294;-56
2021/12/01 07:00:30;;;;;;;6.07;3.80;;;;;;;7.23;43.89;99262.19;5071515;28;20562;-56
2021/12/01 07:02:56;;;;;;;3.73;3.30;;;;;;;7.37;43.36;99254.88;5071092;28;20729;-56
2021/12/01 07:05:23;;;;;;;4.03;3.37;;;;;;;7.51;42.64;99282.53;5071028;28;20193;-56
2021/12/01 07:07:50;;;;;;;5.00;3.53;;;;;;;7.51;43.15;99286.75;5070927;28;20220;-57
2021/12/01 07:10:17;;;;;;;3.83;3.20;;;;;;;7.47;42.51;99265.38;5070949;28;20191;-57
2021/12/01 07:12:44;;;;;;;3.70;3.37;;;;;;;7.46;42.90;99270.44;5071131;28;20673;-57
2021/12/01 07:15:13;;;;;;;3.47;3.17;;;;;;;7.51;42.44;99263.75;5065582;28;20281;-57
2021/12/01 07:17:41;;;;;;;3.77;2.93;;;;;;;7.53;42.68;99268.06;5069581;28;20195;-57
2021/12/01 07:20:10;;;;;;;4.10;3.07;;;;;;;7.50;42.74;99264.56;5070796;28;20235;-57
2021/12/01 07:22:38;;;;;;;6.90;2.90;;;;;;;7.50;43.22;99264.56;5071335;28;20200;-57
2021/12/01 07:25:06;;;;;;;3.43;2.60;;;;;;;7.39;43.57;99255.81;5071099;28;20250;-57
2021/12/01 07:27:33;;;;;;;6.13;3.53;;;;;;;7.31;44.18;99255.59;5070636;28;20214;-57
2021/12/01 07:30:00;;;;;;;6.73;3.10;;;;;;;7.31;43.97;99253.03;5057927;28;20201;-57
2021/12/01 07:32:29;;;;;;;4.33;3.37;;;;;;;7.34;44.16;99250.56;5050770;28;20198;-56
2021/12/01 07:34:56;;;;;;;6.20;3.60;;;;;;;7.36;44.29;99265.94;5050617;28;20199;-57
2021/12/01 07:37:23;;;;;;;7.03;3.70;;;;;;;7.16;44.47;99239.03;5063165;28;20241;-56
2021/12/01 07:39:50;;;;;;;4.03;3.23;;;;;;;7.40;44.04;99266.06;5069536;28;20681;-56
2021/12/01 07:42:17;;;;;;;7.97;3.27;;;;;;;7.47;43.96;99265.38;5070123;28;20202;-56
2021/12/01 07:44:44;;;;;;;5.53;2.80;;;;;;;7.52;43.87;99266.38;5070576;28;20214;-57
2021/12/01 07:47:12;;;;;;;5.13;3.30;;;;;;;7.62;43.26;99257.22;5060287;28;20226;-57
2021/12/01 07:49:41;;;;;;;3.77;3.20;;;;;;;7.64;43.48;99264.09;5050502;28;20285;-57
2021/12/01 07:52:08;;;;;;;5.50;3.20;;;;;;;7.73;43.36;99250.66;5050506;28;20192;-57
2021/12/01 07:54:35;;;;;;;15.33;3.20;;;;;;;7.77;43.86;99254.16;5057019;28;20649;-57
2021/12/01 07:57:03;;;;;;;3.67;3.23;;;;;;;7.83;42.59;99260.25;5062209;28;20579;-57
2021/12/01 07:59:30;;;;;;;4.80;3.07;;;;;;;7.87;43.04;99269.75;5050498;28;20198;-57
2021/12/01 08:01:57;;;;;;;3.57;3.27;;;;;;;7.89;43.46;99255.28;5050074;28;20192;-58
2021/12/01 08:04:24;;;;;;;4.53;2.93;;;;;;;7.94;43.53;99247.75;5049978;28;20296;-57
2021/12/01 08:06:54;;;;;;;7.63;3.10;;;;;;;8.01;43.88;99244.47;5049676;28;20271;-57
2021/12/01 08:09:21;;;;;;;6.53;3.67;;;;;;;8.05;43.77;99239.47;5050000;28;20676;-57
2021/12/01 08:11:48;;;;;;;5.00;3.07;;;;;;;8.18;43.54;99246.59;5050023;28;20670;-57
2021/12/01 08:14:15;;;;;;;2.87;2.63;;;;;;;8.17;43.00;99224.38;5050188;28;20201;-57
2021/12/01 08:16:42;;;;;;;3.67;3.10;;;;;;;8.18;42.63;99222.69;5049792;28;20207;-57
2021/12/01 08:19:09;;;;;;;4.80;3.20;;;;;;;8.21;43.03;99226.16;5050071;28;20233;-56
2021/12/01 08:21:35;;;;;;;3.73;3.00;;;;;;;8.22;42.49;99220.22;5049972;28;20194;-57
2021/12/01 08:24:04;;;;;;;4.20;3.03;;;;;;;8.28;42.91;99222.06;5049796;28;20184;-57
2021/12/01 08:26:31;;;;;;;5.20;3.00;;;;;;;8.25;42.98;99221.97;5049311;28;20221;-57
2021/12/01 08:28:58;;;;;;;4.27;2.77;;;;;;;8.33;42.82;99223.03;5050196;28;20188;-57
2021/12/01 08:31:25;;;;;;;7.73;2.83;;;;;;;8.41;43.14;99226.59;5049892;28;20195;-57
2021/12/01 08:33:52;;;;;;;2.83;2.50;;;;;;;8.41;42.97;99215.50;5049849;28;20719;-57
2021/12/01 08:36:19;;;;;;;2.93;2.63;;;;;;;8.59;43.13;99224.44;5049877;28;20202;-57
2021/12/01 08:38:46;;;;;;;4.77;2.87;;;;;;;8.69;42.81;99225.47;5050155;28;20269;-57
2021/12/01 08:41:14;;;;;;;3.03;2.83;;;;;;;8.75;42.88;99228.16;5050377;28;20609;-57
2021/12/01 08:43:41;;;;;;;4.17;2.80;;;;;;;8.75;43.14;99234.13;5062505;28;20646;-56
2021/12/01 08:46:08;;;;;;;4.60;2.93;;;;;;;8.85;42.53;99233.47;5061154;28;20210;-56
2021/12/01 08:48:36;;;;;;;3.83;2.80;;;;;;;8.93;43.13;99233.59;5056209;28;20245;-56
2021/12/01 08:51:03;;;;;;;5.07;2.73;;;;;;;8.94;43.27;99250.72;5056245;28;20194;-57
2021/12/01 08:53:31;;;;;;;5.40;2.77;;;;;;;9.02;43.42;99227.78;5056265;28;20329;-57
2021/12/01 08:55:58;;;;;;;2.93;2.70;;;;;;;9.16;43.01;99234.88;5056902;28;20228;-57
2021/12/01 08:58:27;;;;;;;3.73;2.70;;;;;;;9.27;42.13;99235.06;5067285;28;20276;-57
2021/12/01 09:00:54;;;;;;;6.00;3.70;;;;;;;9.47;41.54;99224.31;5056244;28;20265;-57
2021/12/01 09:03:22;;;;;;;4.17;2.80;;;;;;;9.57;41.27;99221.88;5056339;28;20196;-57
2021/12/01 09:05:50;;;;;;;2.93;2.33;;;;;;;9.66;40.87;99219.47;5056065;28;20555;-57
2021/12/01 09:08:20;;;;;;;3.40;2.50;;;;;;;9.77;40.99;99218.81;5056228;28;20211;-57
2021/12/01 09:10:48;;;;;;;4.63;2.83;;;;;;;9.88;41.01;99212.13;5056694;28;20198;-57
2021/12/01 09:13:16;;;;;;;3.40;2.80;;;;;;;9.78;40.96;99171.75;5055588;28;20504;-57
2021/12/01 09:15:44;;;;;;;3.20;2.20;;;;;;;10.08;40.10;99186.69;5055945;28;20195;-57
2021/12/01 09:18:12;;;;;;;3.07;2.20;;;;;;;10.30;39.74;99201.56;5056281;28;20203;-57
2021/12/01 09:20:39;;;;;;;2.07;1.87;;;;;;;10.29;39.79;99199.88;5055820;28;20278;-57
2021/12/01 09:23:06;;;;;;;2.20;2.00;;;;;;;10.25;40.70;99204.94;5055991;28;20728;-57
2021/12/01 09:25:33;;;;;;;2.63;2.30;;;;;;;10.36;40.94;99205.91;5056054;28;20551;-57
2021/12/01 09:28:02;;;;;;;2.93;2.63;;;;;;;10.34;41.56;99187.94;5056076;28;20223;-57
2021/12/01 09:30:29;;;;;;;2.77;2.57;;;;;;;10.47;41.70;99200.06;5055857;28;20274;-57
2021/12/01 09:32:57;;;;;;;2.20;2.00;;;;;;;10.58;40.92;99205.34;5055856;28;20267;-57
2021/12/01 09:35:24;;;;;;;2.30;2.10;;;;;;;10.63;41.27;99195.97;5055670;28;20210;-57
2021/12/01 09:37:51;;;;;;;3.40;2.10;;;;;;;10.48;41.11;99157.28;5058186;28;20200;-59
2021/12/01 09:40:19;;;;;;;3.07;1.70;;;;;;;10.66;41.21;99188.28;5056092;28;20211;-60
2021/12/01 09:42:49;;;;;;;2.10;1.90;;;;;;;10.61;41.59;99185.69;5055739;28;20203;-61
2021/12/01 09:45:17;;;;;;;2.33;2.13;;;;;;;10.60;41.42;99194.22;5063949;28;20200;-60
2021/12/01 09:47:44;;;;;;;2.10;2.00;;;;;;;10.55;40.87;99174.47;5075987;28;20223;-60
2021/12/01 09:50:13;;;;;;;6.37;2.00;;;;;;;10.62;41.12;99169.44;5076128;28;20585;-60
2021/12/01 09:52:40;;;;;;;2.10;1.97;;;;;;;10.81;40.41;99185.91;5068476;28;20215;-59
2021/12/01 09:55:11;;;;;;;2.60;1.93;;;;;;;10.83;40.44;99168.78;5051870;28;20228;-60
2021/12/01 09:57:38;;;;;;;3.00;2.20;;;;;;;10.89;40.51;99163.72;5069299;28;20183;-60
2021/12/01 10:00:08;;;;;;;2.23;1.90;;;;;;;10.96;40.08;99157.78;5072760;28;20190;-60
2021/12/01 10:02:35;;;;;;;9.37;3.93;;;;;;;11.02;40.88;99141.53;5072218;28;20274;-60
2021/12/01 10:05:02;;;;;;;4.07;2.57;;;;;;;10.91;40.72;99146.59;5071782;28;20176;-59
2021/12/01 10:07:34;;;;;;;5.87;3.10;;;;;;;10.69;40.87;99124.09;5072108;28;20222;-59
2021/12/01 10:10:08;;;;;;;4.50;2.33;;;;;;;10.90;41.09;99133.75;5071815;28;20357;-60
2021/12/01 10:12:45;;;;;;;3.77;2.97;;;;;;;11.00;40.75;99144.13;5067533;28;20246;-60
2021/12/01 10:15:12;;;;;;;3.13;2.30;;;;;;;11.08;41.03;99144.16;5069105;28;20229;-60
2021/12/01 10:17:39;;;;;;;8.77;4.20;;;;;;;11.08;41.42;99141.59;5071764;28;20613;-59
2021/12/01 10:20:18;;;;;;;11.60;5.70;;;;;;;11.10;41.88;99143.34;5072221;28;20292;-60
2021/12/01 10:23:11;;;;;;;22.50;16.10;;;;;;;11.11;41.93;99149.34;5070961;28;20479;-59
2021/12/01 10:25:39;;;;;;;2.70;2.00;;;;;;;11.17;41.20;99151.97;5072103;28;20282;-61
2021/12/01 10:28:06;;;;;;;4.27;2.50;;;;;;;11.19;41.67;99147.69;5073991;28;20230;-61
2021/12/01 10:30:41;;;;;;;2.27;2.10;;;;;;;11.28;41.78;99147.78;5071911;28;20199;-60
2021/12/01 10:33:10;;;;;;;2.10;1.90;;;;;;;11.39;42.02;99145.28;5071672;28;20190;-60
2021/12/01 10:35:37;;;;;;;2.43;2.00;;;;;;;11.47;41.64;99141.03;5071727;28;20180;-61
2021/12/01 10:38:06;;;;;;;2.07;1.90;;;;;;;11.43;41.64;99145.28;5071296;28;20203;-61
2021/12/01 10:40:35;;;;;;;3.43;1.97;;;;;;;11.30;41.87;99129.78;5071557;28;20199;-61
2021/12/01 10:43:04;;;;;;;2.77;2.40;;;;;;;11.37;42.08;99149.56;5071416;28;20194;-60
2021/12/01 10:45:33;;;;;;;2.53;2.33;;;;;;;11.26;42.29;99119.47;5071684;28;20191;-61
2021/12/01 10:48:02;;;;;;;2.03;1.80;;;;;;;11.50;42.05;99143.66;5071467;28;20214;-61
2021/12/01 10:50:30;;;;;;;4.00;2.47;;;;;;;11.58;42.40;99152.28;5071711;28;20214;-61
2021/12/01 10:53:03;;;;;;;3.53;2.60;;;;;;;11.65;42.00;99149.75;5071644;28;20598;-61
2021/12/01 10:55:30;;;;;;;2.90;2.43;;;;;;;11.71;42.04;99143.81;5071121;28;20197;-61
2021/12/01 10:58:02;;;;;;;2.00;1.90;;;;;;;11.79;41.38;99127.56;5071446;28;20171;-61
2021/12/01 11:00:31;;;;;;;2.37;1.90;;;;;;;11.84;41.79;99131.00;5071438;28;20558;-60
2021/12/01 11:03:06;;;;;;;2.73;2.07;;;;;;;11.95;42.22;99127.66;5071256;28;20539;-60
2021/12/01 11:05:34;;;;;;;2.70;2.20;;;;;;;12.06;41.41;99134.53;5070697;28;20686;-60
2021/12/01 11:08:12;;;;;;;2.30;2.10;;;;;;;12.08;41.26;99125.13;5071259;28;20200;-60
2021/12/01 11:10:39;;;;;;;3.13;2.10;;;;;;;12.20;41.42;99130.31;5071158;28;20194;-60
2021/12/01 11:13:08;;;;;;;3.30;1.97;;;;;;;12.24;41.26;99137.22;5070887;28;20195;-60
2021/12/01 11:15:37;;;;;;;4.27;2.03;;;;;;;12.19;41.74;99122.59;5070952;28;20191;-62
2021/12/01 11:18:05;;;;;;;2.00;1.90;;;;;;;12.30;41.63;99126.94;5071003;28;20273;-62
2021/12/01 11:20:39;;;;;;;10.43;2.17;;;;;;;12.39;41.66;99121.78;5070688;28;20234;-61
2021/12/01 11:23:12;;;;;;;3.30;2.00;;;;;;;12.31;41.00;99102.00;5070861;28;20697;-61
2021/12/01 11:25:39;;;;;;;2.83;2.20;;;;;;;12.50;41.05;99126.97;5070620;28;20195;-61
2021/12/01 11:28:13;;;;;;;2.57;2.13;;;;;;;12.57;41.32;99123.56;5070543;28;20223;-60
2021/12/01 11:30:41;;;;;;;2.40;2.20;;;;;;;12.64;40.98;99117.56;5070687;28;20191;-60
2021/12/01 11:33:10;;;;;;;4.60;2.27;;;;;;;12.62;41.37;99118.41;5070580;28;20266;-61
2021/12/01 11:35:38;;;;;;;4.23;2.83;;;;;;;12.65;41.12;99101.25;5070684;28;20195;-62
2021/12/01 11:38:06;;;;;;;3.13;2.50;;;;;;;12.68;41.04;99103.84;5070346;28;20270;-61
2021/12/01 11:40:33;;;;;;;4.27;2.57;;;;;;;12.59;41.07;99101.22;5070055;28;20617;-61
2021/12/01 11:43:00;;;;;;;3.47;2.63;;;;;;;12.53;41.20;99095.19;5070283;28;20192;-65
2021/12/01 11:45:28;;;;;;;2.63;2.40;;;;;;;12.66;41.26;99099.53;5070505;28;20192;-60
2021/12/01 11:47:56;;;;;;;3.57;2.80;;;;;;;12.68;41.40;99093.53;5070750;28;20997;-61